createdAt,value
2023-01-01T00:03:29.543Z,100365.13
2023-01-01T00:07:31.415Z,100364.25
2023-01-01T00:11:32.911Z,100366.38
2023-01-01T00:15:34.422Z,100365.50
2023-01-01T00:19:35.987Z,100344.56
2023-01-01T00:23:38.070Z,100350.09
2023-01-01T00:27:40.391Z,100355.47
2023-01-01T00:31:42.555Z,100357.53
2023-01-01T00:35:44.045Z,100356.88
2023-01-01T00:39:45.584Z,100361.97
2023-01-01T00:43:47.225Z,100356.28
2023-01-01T00:47:49.508Z,100364.44
2023-01-01T00:51:51.010Z,100373.47
2023-01-01T00:55:53.506Z,100378.50
2023-01-01T00:59:54.968Z,100375.72
2023-01-01T01:03:56.530Z,100388.91
2023-01-01T01:07:58.696Z,100381.94
2023-01-01T01:12:17.317Z,100387.44
2023-01-01T01:16:24.232Z,100389.31
2023-01-01T01:20:25.708Z,100387.16
2023-01-01T01:24:27.194Z,100395.22
2023-01-01T01:28:31.009Z,100392.47
2023-01-01T01:32:32.447Z,100385.84
2023-01-01T01:36:33.919Z,100390.25
2023-01-01T01:40:35.309Z,100394.53
2023-01-01T01:44:48.959Z,100408.31
2023-01-01T01:48:51.959Z,100399.16
2023-01-01T01:53:06.011Z,100399.56
2023-01-01T01:57:11.269Z,100404.06
2023-01-01T02:01:13.135Z,100410.94
2023-01-01T02:05:14.905Z,100417.72
2023-01-01T02:09:17.063Z,100424.69
2023-01-01T02:13:18.901Z,100430.56
2023-01-01T02:17:39.047Z,100419.78
2023-01-01T02:22:04.146Z,100425.63
2023-01-01T02:26:38.405Z,100429.25
2023-01-01T02:30:44.456Z,100413.53
2023-01-01T02:34:54.979Z,100418.59
2023-01-01T02:38:59.871Z,100410.16
2023-01-01T02:43:02.645Z,100411.56
2023-01-01T02:47:09.322Z,100383.69
2023-01-01T02:51:35.647Z,100387.22
2023-01-01T02:55:52.624Z,100381.44
2023-01-01T03:00:24.121Z,100392.78
2023-01-01T03:04:31.516Z,100401.47
2023-01-01T03:09:12.338Z,100405.25
2023-01-01T03:13:56.306Z,100414.50
2023-01-01T03:18:20.142Z,100418.75
2023-01-01T03:22:26.864Z,100420.75
2023-01-01T03:26:31.742Z,100407.28
2023-01-01T03:30:37.590Z,100411.91
2023-01-01T03:34:45.307Z,100418.75
2023-01-01T03:38:59.175Z,100417.16
2023-01-01T03:43:18.894Z,100418.91
2023-01-01T03:47:20.500Z,100412.28
2023-01-01T03:51:37.302Z,100415.91
2023-01-01T03:56:00.397Z,100427.63
2023-01-01T04:00:18.214Z,100440.69
2023-01-01T04:04:20.324Z,100443.97
2023-01-01T04:08:22.506Z,100441.38
2023-01-01T04:12:24.099Z,100446.66
2023-01-01T04:16:25.623Z,100458.88
2023-01-01T04:20:27.326Z,100465.44
2023-01-01T04:24:29.019Z,100462.72
2023-01-01T04:28:30.542Z,100473.97
2023-01-01T04:32:32.094Z,100482.94
2023-01-01T04:36:34.161Z,100474.84
2023-01-01T04:40:35.663Z,100495.34
2023-01-01T04:44:37.155Z,100497.16
2023-01-01T04:48:38.647Z,100485.81
2023-01-01T04:52:40.126Z,100499.44
2023-01-01T04:56:41.605Z,100506.97
2023-01-01T05:00:43.143Z,100507.22
2023-01-01T05:04:44.681Z,100513.28
2023-01-01T05:08:47.878Z,100529.78
2023-01-01T05:12:49.345Z,100537.56
2023-01-01T05:16:50.866Z,100534.88
2023-01-01T05:20:52.333Z,100547.19
2023-01-01T05:24:54.505Z,100546.59
2023-01-01T05:28:57.052Z,100544.56
2023-01-01T05:32:58.517Z,100555.56
2023-01-01T05:36:59.948Z,100549.97
2023-01-01T05:41:09.668Z,100553.47
2023-01-01T05:45:11.201Z,100558.88
2023-01-01T05:49:12.907Z,100568.66
2023-01-01T05:53:14.326Z,100564.19
2023-01-01T05:57:15.755Z,100557.94
2023-01-01T06:01:26.780Z,100557.31
2023-01-01T06:05:28.398Z,100555.94
2023-01-01T06:09:29.885Z,100556.44
2023-01-01T06:13:31.788Z,100549.84
2023-01-01T06:17:34.229Z,100551.47
2023-01-01T06:21:35.658Z,100553.13
2023-01-01T06:25:37.060Z,100553.06
2023-01-01T06:29:38.471Z,100566.81
2023-01-01T06:33:40.487Z,100567.97
2023-01-01T06:37:41.950Z,100561.31
2023-01-01T06:41:43.796Z,100557.63
2023-01-01T06:45:45.235Z,100563.84
2023-01-01T06:49:46.725Z,100578.75
2023-01-01T06:53:49.268Z,100601.25
2023-01-01T06:57:52.359Z,100591.38
2023-01-01T07:01:53.901Z,100589.72
2023-01-01T07:05:55.457Z,100607.66
2023-01-01T07:09:57.013Z,100593.38
2023-01-01T07:13:58.573Z,100598.78
2023-01-01T07:17:59.979Z,100616.75
2023-01-01T07:22:01.488Z,100622.16
2023-01-01T07:26:03.233Z,100649.22
2023-01-01T07:30:05.417Z,100658.69
2023-01-01T07:34:09.686Z,100661.59
2023-01-01T07:38:11.344Z,100680.38
2023-01-01T07:42:12.783Z,100666.16
2023-01-01T07:46:16.417Z,100690.88
2023-01-01T07:50:18.167Z,100689.81
2023-01-01T07:54:19.686Z,100693.94
2023-01-01T07:58:23.780Z,100700.38
2023-01-01T08:02:25.320Z,100706.44
2023-01-01T08:06:26.905Z,100700.63
2023-01-01T08:10:28.515Z,100718.72
2023-01-01T08:14:30.001Z,100711.94
2023-01-01T08:18:31.516Z,100717.41
2023-01-01T08:22:33.003Z,100725.44
2023-01-01T08:26:36.565Z,100710.31
2023-01-01T08:30:38.001Z,100717.56
2023-01-01T08:34:39.848Z,100718.06
2023-01-01T08:38:41.326Z,100739.97
2023-01-01T08:42:42.782Z,100742.22
2023-01-01T08:46:44.770Z,100748.06
2023-01-01T08:50:55.267Z,100755.13
2023-01-01T08:54:56.873Z,100747.38
2023-01-01T08:59:04.258Z,100749.91
2023-01-01T09:03:06.117Z,100754.25
2023-01-01T09:07:07.898Z,100744.84
2023-01-01T09:11:22.615Z,100743.84
2023-01-01T09:15:24.125Z,100752.25
2023-01-01T09:19:25.709Z,100762.66
2023-01-01T09:23:27.128Z,100775.22
2023-01-01T09:27:28.594Z,100797.81
2023-01-01T09:31:30.063Z,100800.72
2023-01-01T09:35:31.614Z,100809.22
2023-01-01T09:39:33.313Z,100824.53
2023-01-01T09:44:01.951Z,100844.25
2023-01-01T09:48:11.729Z,100861.44
2023-01-01T09:52:15.545Z,100856.84
2023-01-01T09:56:26.760Z,100849.63
2023-01-01T10:00:32.747Z,100844.72
2023-01-01T10:04:49.078Z,100865.88
2023-01-01T10:09:20.501Z,100877.16
2023-01-01T10:13:26.749Z,100874.69
2023-01-01T10:17:37.879Z,100881.91
2023-01-01T10:21:47.156Z,100891.75
2023-01-01T10:25:49.005Z,100891.22
2023-01-01T10:29:53.706Z,100895.66
2023-01-01T10:33:58.430Z,100918.69
2023-01-01T10:38:01.073Z,100924.78
2023-01-01T10:42:03.689Z,100926.69
2023-01-01T10:46:05.966Z,100922.84
2023-01-01T10:50:08.693Z,100934.41
2023-01-01T10:54:33.550Z,100934.19
2023-01-01T10:58:38.774Z,100946.81
2023-01-01T11:02:40.393Z,100948.97
2023-01-01T11:06:44.188Z,100953.34
2023-01-01T11:10:51.791Z,100939.03
2023-01-01T11:14:54.941Z,100942.28
2023-01-01T11:19:05.213Z,100957.94
2023-01-01T11:23:33.845Z,100963.31
2023-01-01T11:27:35.399Z,100953.97
2023-01-01T11:31:39.622Z,100958.19
2023-01-01T11:35:50.568Z,100957.97
2023-01-01T11:39:54.284Z,100975.84
2023-01-01T11:43:55.838Z,100984.03
2023-01-01T11:48:00.268Z,100987.06
2023-01-01T11:52:28.866Z,101008.63
2023-01-01T11:56:30.573Z,100998.63
2023-01-01T12:00:36.175Z,101001.22
2023-01-01T12:04:49.152Z,101012.00
2023-01-01T12:09:18.103Z,101030.06
2023-01-01T12:13:28.830Z,101032.41
2023-01-01T12:17:37.923Z,101022.47
2023-01-01T12:21:47.566Z,101042.59
2023-01-01T12:26:11.053Z,101022.09
2023-01-01T12:30:23.859Z,101041.81
2023-01-01T12:34:36.309Z,101043.81
2023-01-01T12:38:47.197Z,101047.09
2023-01-01T12:42:54.236Z,101052.31
2023-01-01T12:47:23.187Z,101053.72
2023-01-01T12:51:40.700Z,101066.69
2023-01-01T12:56:06.057Z,101062.44
2023-01-01T13:00:19.329Z,101074.84
2023-01-01T13:04:22.500Z,101093.16
2023-01-01T13:08:23.916Z,101089.56
2023-01-01T13:12:26.344Z,101079.56
2023-01-01T13:16:39.034Z,101097.09
2023-01-01T13:20:43.810Z,101108.69
2023-01-01T13:25:11.309Z,101112.94
2023-01-01T13:29:13.844Z,101133.53
2023-01-01T13:33:32.431Z,101155.53
2023-01-01T13:37:43.834Z,101165.16
2023-01-01T13:41:46.450Z,101177.56
2023-01-01T13:46:13.478Z,101175.28
2023-01-01T13:50:25.137Z,101172.22
2023-01-01T13:54:44.740Z,101171.38
2023-01-01T13:59:09.695Z,101172.22
2023-01-01T14:03:15.209Z,101173.06
2023-01-01T14:07:51.138Z,101179.69
2023-01-01T14:11:53.693Z,101193.78
2023-01-01T14:16:02.926Z,101196.34
2023-01-01T14:20:08.563Z,101202.28
2023-01-01T14:24:16.225Z,101208.22
2023-01-01T14:28:26.044Z,101207.47
2023-01-01T14:32:33.069Z,101230.59
2023-01-01T14:36:34.501Z,101244.28
2023-01-01T14:40:35.968Z,101248.16
2023-01-01T14:44:46.245Z,101254.00
2023-01-01T14:48:51.549Z,101262.88
2023-01-01T14:52:57.998Z,101258.44
2023-01-01T14:57:00.513Z,101247.66
2023-01-01T15:01:16.982Z,101268.13
2023-01-01T15:05:34.693Z,101278.19
2023-01-01T15:09:36.731Z,101274.78
2023-01-01T15:13:38.311Z,101285.69
2023-01-01T15:17:47.407Z,101298.16
2023-01-01T15:21:48.925Z,101296.44
2023-01-01T15:25:50.438Z,101310.00
2023-01-01T15:29:52.167Z,101312.03
2023-01-01T15:33:53.769Z,101329.56
2023-01-01T15:38:00.507Z,101324.84
2023-01-01T15:42:02.076Z,101346.44
2023-01-01T15:46:26.097Z,101351.75
2023-01-01T15:50:38.095Z,101364.13
2023-01-01T15:54:39.900Z,101377.09
2023-01-01T15:59:05.297Z,101380.00
2023-01-01T16:03:21.238Z,101381.53
2023-01-01T16:07:25.169Z,101387.81
2023-01-01T16:11:26.703Z,101389.59
2023-01-01T16:15:28.281Z,101385.59
2023-01-01T16:19:31.545Z,101400.66
2023-01-01T16:23:32.979Z,101392.72
2023-01-01T16:27:34.427Z,101393.88
2023-01-01T16:31:38.689Z,101400.84
2023-01-01T16:35:40.163Z,101392.16
2023-01-01T16:39:41.620Z,101399.25
2023-01-01T16:43:46.435Z,101392.13
2023-01-01T16:47:47.887Z,101391.25
2023-01-01T16:51:51.730Z,101388.00
2023-01-01T16:55:53.667Z,101392.16
2023-01-01T16:59:55.082Z,101390.34
2023-01-01T17:03:56.615Z,101386.75
2023-01-01T17:07:58.036Z,101382.00
2023-01-01T17:11:59.481Z,101393.44
2023-01-01T17:16:01.906Z,101402.25
2023-01-01T17:20:03.778Z,101407.88
2023-01-01T17:24:05.720Z,101402.69
2023-01-01T17:28:07.263Z,101416.19
2023-01-01T17:32:08.777Z,101424.44
2023-01-01T17:36:10.919Z,101416.44
2023-01-01T17:40:12.564Z,101416.50
2023-01-01T17:44:14.012Z,101431.47
2023-01-01T17:48:15.431Z,101426.22
2023-01-01T17:52:16.928Z,101428.22
2023-01-01T17:56:19.723Z,101437.19
2023-01-01T18:00:21.254Z,101437.19
2023-01-01T18:04:22.917Z,101441.78
2023-01-01T18:08:24.316Z,101430.81
2023-01-01T18:12:25.795Z,101413.94
2023-01-01T18:16:28.444Z,101422.69
2023-01-01T18:20:29.904Z,101429.94
2023-01-01T18:24:31.735Z,101435.09
2023-01-01T18:28:33.880Z,101439.44
2023-01-01T18:32:35.331Z,101428.88
2023-01-01T18:36:36.811Z,101439.53
2023-01-01T18:40:42.141Z,101445.03
2023-01-01T18:44:43.691Z,101450.34
2023-01-01T18:48:45.249Z,101457.47
2023-01-01T18:52:47.397Z,101462.59
2023-01-01T18:57:28.611Z,101470.91
2023-01-01T19:01:32.173Z,101465.63
2023-01-01T19:05:35.562Z,101471.00
2023-01-01T19:09:37.086Z,101466.50
2023-01-01T19:13:42.685Z,101467.41
2023-01-01T19:17:44.407Z,101464.78
2023-01-01T19:21:51.936Z,101477.13
2023-01-01T19:25:57.010Z,101461.41
2023-01-01T19:29:58.589Z,101452.41
2023-01-01T19:34:00.118Z,101447.22
2023-01-01T19:38:01.672Z,101450.75
2023-01-01T19:42:05.005Z,101440.94
2023-01-01T19:46:06.474Z,101439.31
2023-01-01T19:50:08.273Z,101448.88
2023-01-01T19:54:10.603Z,101449.00
2023-01-01T19:58:12.157Z,101452.53
2023-01-01T20:06:36.320Z,101454.22
2023-01-01T20:10:37.843Z,101457.84
2023-01-01T20:14:39.316Z,101465.81
2023-01-01T20:18:40.845Z,101450.78
2023-01-01T20:22:42.320Z,101458.59
2023-01-01T20:26:43.867Z,101456.09
2023-01-01T20:30:45.300Z,101455.31
2023-01-01T20:34:47.135Z,101460.78
2023-01-01T20:38:48.570Z,101457.09
2023-01-01T20:42:49.982Z,101458.75
2023-01-01T20:46:51.766Z,101463.31
2023-01-01T20:50:53.178Z,101457.25
2023-01-01T20:54:54.616Z,101466.88
2023-01-01T20:59:00.421Z,101465.94
2023-01-01T21:03:06.012Z,101470.41
2023-01-01T21:07:09.761Z,101469.50
2023-01-01T21:11:11.314Z,101468.69
2023-01-01T21:15:15.889Z,101463.19
2023-01-01T21:19:24.375Z,101456.19
2023-01-01T21:23:29.191Z,101455.13
2023-01-01T21:27:33.914Z,101451.53
2023-01-01T21:31:38.199Z,101448.28
2023-01-01T21:35:39.726Z,101453.22
2023-01-01T21:39:41.841Z,101449.63
2023-01-01T21:43:53.833Z,101456.06
2023-01-01T21:47:55.983Z,101448.97
2023-01-01T21:51:59.292Z,101458.75
2023-01-01T21:56:27.589Z,101466.72
2023-01-01T22:00:29.089Z,101472.72
2023-01-01T22:04:40.790Z,101478.94
2023-01-01T22:08:43.998Z,101494.25
2023-01-01T22:12:46.725Z,101498.44
2023-01-01T22:16:53.955Z,101501.03
2023-01-01T22:20:56.182Z,101492.09
2023-01-01T22:25:00.633Z,101482.31
2023-01-01T22:29:08.029Z,101480.13
2023-01-01T22:33:17.824Z,101478.25
2023-01-01T22:37:32.759Z,101465.72
2023-01-01T22:41:34.613Z,101462.78
2023-01-01T22:45:43.531Z,101459.47
2023-01-01T22:49:53.076Z,101453.41
2023-01-01T22:53:54.507Z,101443.53
2023-01-01T22:57:55.948Z,101442.66
2023-01-01T23:01:57.493Z,101453.28
2023-01-01T23:05:59.600Z,101442.56
2023-01-01T23:10:01.213Z,101441.75
2023-01-01T23:14:21.389Z,101427.56
2023-01-01T23:18:22.802Z,101432.94
2023-01-01T23:22:26.875Z,101431.78
2023-01-01T23:26:28.426Z,101420.50
2023-01-01T23:30:29.876Z,101432.94
2023-01-01T23:34:31.446Z,101432.72
2023-01-01T23:38:33.335Z,101425.56
2023-01-01T23:42:34.845Z,101430.22
2023-01-01T23:46:38.229Z,101432.91
2023-01-01T23:50:39.940Z,101425.81
2023-01-01T23:54:41.454Z,101421.41
2023-01-01T23:58:42.889Z,101409.06
